createdAt,value
2023-01-29T00:00:10.742Z,61.80
2023-01-29T00:02:42.703Z,61.90
2023-01-29T00:05:27.117Z,61.95
2023-01-29T00:08:00.134Z,61.67
2023-01-29T00:10:32.234Z,61.80
2023-01-29T00:13:04.243Z,61.12
2023-01-29T00:15:36.197Z,61.41
2023-01-29T00:18:08.414Z,61.70
2023-01-29T00:20:43.977Z,61.59
2023-01-29T00:23:15.995Z,62.07
2023-01-29T00:25:48.271Z,62.91
2023-01-29T00:28:20.388Z,61.42
2023-01-29T00:30:52.375Z,61.56
2023-01-29T00:33:24.558Z,61.85
2023-01-29T00:35:56.684Z,61.88
2023-01-29T00:38:28.560Z,61.40
2023-01-29T00:41:34.283Z,61.69
2023-01-29T00:44:25.706Z,62.02
2023-01-29T00:46:57.834Z,61.91
2023-01-29T00:49:30.752Z,61.97
2023-01-29T00:52:25.797Z,62.08
2023-01-29T00:54:59.824Z,61.37
2023-01-29T00:57:33.630Z,61.52
2023-01-29T01:00:07.890Z,61.23
2023-01-29T01:02:58.276Z,61.73
2023-01-29T01:05:30.496Z,61.69
2023-01-29T01:08:02.473Z,61.77
2023-01-29T01:10:34.421Z,62.19
2023-01-29T01:13:07.595Z,62.19
2023-01-29T01:15:40.970Z,62.21
2023-01-29T01:18:15.131Z,62.26
2023-01-29T01:20:51.879Z,63.25
2023-01-29T01:23:23.788Z,62.78
2023-01-29T01:25:55.777Z,62.39
2023-01-29T01:28:28.365Z,62.94
2023-01-29T01:31:09.095Z,62.55
2023-01-29T01:33:41.349Z,62.78
2023-01-29T01:36:14.356Z,62.50
2023-01-29T01:38:46.707Z,62.63
2023-01-29T01:41:21.944Z,62.87
2023-01-29T01:44:02.239Z,62.62
2023-01-29T01:46:38.181Z,63.20
2023-01-29T01:49:18.755Z,63.00
2023-01-29T01:51:52.990Z,62.52
2023-01-29T01:54:29.031Z,62.58
2023-01-29T01:57:09.651Z,61.79
2023-01-29T01:59:47.022Z,61.83
2023-01-29T02:02:37.483Z,62.00
2023-01-29T02:05:31.455Z,62.31
2023-01-29T02:08:22.211Z,62.31
2023-01-29T02:10:54.203Z,61.54
2023-01-29T02:13:27.219Z,62.47
2023-01-29T02:15:59.223Z,62.01
2023-01-29T02:18:38.232Z,62.61
2023-01-29T02:21:35.813Z,61.98
2023-01-29T02:24:23.025Z,62.59
2023-01-29T02:27:09.490Z,61.98
2023-01-29T02:30:00.856Z,62.65
2023-01-29T02:33:22.522Z,62.87
2023-01-29T02:35:59.225Z,62.90
2023-01-29T02:38:53.849Z,62.46
2023-01-29T02:41:48.742Z,62.75
2023-01-29T02:44:56.330Z,62.68
2023-01-29T02:47:37.585Z,62.81
2023-01-29T02:50:17.181Z,63.43
2023-01-29T02:53:10.508Z,62.76
2023-01-29T02:55:53.792Z,62.84
2023-01-29T02:58:35.373Z,63.27
2023-01-29T03:01:13.176Z,63.75
2023-01-29T03:03:51.736Z,62.90
2023-01-29T03:06:38.843Z,62.96
2023-01-29T03:09:22.831Z,63.47
2023-01-29T03:11:59.138Z,63.41
2023-01-29T03:14:54.088Z,63.08
2023-01-29T03:17:33.310Z,63.76
2023-01-29T03:20:14.006Z,63.17
2023-01-29T03:22:51.937Z,63.75
2023-01-29T03:25:46.318Z,64.07
2023-01-29T03:28:38.032Z,63.81
2023-01-29T03:31:31.296Z,63.51
2023-01-29T03:34:06.059Z,63.62
2023-01-29T03:36:46.186Z,64.44
2023-01-29T03:39:18.409Z,63.43
2023-01-29T03:42:03.023Z,63.25
2023-01-29T03:44:48.970Z,63.17
2023-01-29T03:47:45.794Z,63.18
2023-01-29T03:50:35.630Z,63.29
2023-01-29T03:53:16.712Z,63.64
2023-01-29T03:56:33.291Z,63.95
2023-01-29T03:59:35.855Z,63.74
2023-01-29T04:02:16.372Z,64.07
2023-01-29T04:04:52.320Z,64.15
2023-01-29T04:07:25.790Z,64.00
2023-01-29T04:10:07.140Z,64.79
2023-01-29T04:12:55.383Z,63.73
2023-01-29T04:15:31.638Z,63.68
2023-01-29T04:18:03.765Z,64.21
2023-01-29T04:20:36.362Z,64.60
2023-01-29T04:23:24.515Z,64.21
2023-01-29T04:26:14.434Z,64.42
2023-01-29T04:29:04.447Z,64.79
2023-01-29T04:31:57.755Z,64.66
2023-01-29T04:34:53.723Z,64.27
2023-01-29T04:37:40.568Z,64.73
2023-01-29T04:40:40.708Z,64.24
2023-01-29T04:43:27.236Z,64.29
2023-01-29T04:46:22.250Z,64.11
2023-01-29T04:49:13.290Z,64.38
2023-01-29T04:51:55.635Z,64.49
2023-01-29T04:54:40.134Z,65.18
2023-01-29T04:57:18.431Z,65.07
2023-01-29T05:00:17.178Z,64.56
2023-01-29T05:02:49.772Z,64.83
2023-01-29T05:05:22.553Z,64.94
2023-01-29T05:07:57.359Z,65.08
2023-01-29T05:10:29.635Z,65.45
2023-01-29T05:13:05.622Z,64.79
2023-01-29T05:15:46.876Z,64.93
2023-01-29T05:18:22.194Z,65.20
2023-01-29T05:20:57.143Z,64.61
2023-01-29T05:23:29.152Z,65.28
2023-01-29T05:26:01.435Z,64.89
2023-01-29T05:28:33.383Z,65.45
2023-01-29T05:31:05.400Z,65.22
2023-01-29T05:33:37.334Z,65.36
2023-01-29T05:36:09.759Z,65.12
2023-01-29T05:38:41.692Z,65.19
2023-01-29T05:41:13.673Z,65.32
2023-01-29T05:43:45.612Z,65.47
2023-01-29T05:46:17.593Z,65.43
2023-01-29T05:48:49.620Z,65.35
2023-01-29T05:51:21.625Z,65.40
2023-01-29T05:53:54.346Z,65.59
2023-01-29T05:56:26.278Z,65.14
2023-01-29T05:58:58.250Z,65.54
2023-01-29T06:01:30.202Z,65.44
2023-01-29T06:04:02.301Z,65.57
2023-01-29T06:06:34.321Z,65.57
2023-01-29T06:09:06.275Z,65.21
2023-01-29T06:11:38.779Z,65.43
2023-01-29T06:14:10.766Z,64.83
2023-01-29T06:16:42.747Z,65.11
2023-01-29T06:19:14.740Z,65.12
2023-01-29T06:21:46.693Z,65.07
2023-01-29T06:24:18.670Z,65.19
2023-01-29T06:26:50.712Z,65.66
2023-01-29T06:29:22.704Z,65.44
2023-01-29T06:31:54.793Z,65.47
2023-01-29T06:34:26.846Z,65.34
2023-01-29T06:36:58.784Z,65.45
2023-01-29T06:39:30.816Z,65.54
2023-01-29T06:42:02.848Z,65.63
2023-01-29T06:44:34.812Z,65.10
2023-01-29T06:47:06.778Z,65.05
2023-01-29T06:49:38.686Z,65.28
2023-01-29T06:52:12.904Z,65.04
2023-01-29T06:54:45.353Z,65.36
2023-01-29T06:57:17.348Z,64.91
2023-01-29T06:59:49.542Z,64.54
2023-01-29T07:02:21.561Z,64.98
2023-01-29T07:04:53.511Z,65.06
2023-01-29T07:07:25.514Z,64.76
2023-01-29T07:09:57.459Z,64.74
2023-01-29T07:12:29.521Z,64.96
2023-01-29T07:15:01.593Z,64.37
2023-01-29T07:17:33.588Z,64.64
2023-01-29T07:20:06.517Z,64.05
2023-01-29T07:22:38.515Z,64.23
2023-01-29T07:25:10.555Z,64.17
2023-01-29T07:27:42.479Z,64.04
2023-01-29T07:30:15.063Z,63.86
2023-01-29T07:32:47.108Z,63.87
2023-01-29T07:35:19.106Z,64.16
2023-01-29T07:37:51.742Z,63.39
2023-01-29T07:40:24.135Z,64.00
2023-01-29T07:43:04.983Z,63.73
2023-01-29T07:45:39.228Z,63.91
2023-01-29T07:48:13.653Z,63.95
2023-01-29T07:50:46.330Z,63.40
2023-01-29T07:53:18.335Z,63.81
2023-01-29T07:55:50.619Z,63.99
2023-01-29T07:58:22.674Z,63.36
2023-01-29T08:00:54.680Z,63.32
2023-01-29T08:03:31.704Z,63.00
2023-01-29T08:06:05.006Z,63.47
2023-01-29T08:08:37.004Z,62.84
2023-01-29T08:11:09.002Z,62.92
2023-01-29T08:13:40.982Z,63.62
2023-01-29T08:16:12.979Z,62.66
2023-01-29T08:18:48.110Z,62.73
2023-01-29T08:21:20.088Z,63.03
2023-01-29T08:23:52.020Z,61.52
2023-01-29T08:26:24.059Z,62.67
2023-01-29T08:28:55.992Z,62.20
2023-01-29T08:31:28.040Z,62.38
2023-01-29T08:34:00.162Z,61.56
2023-01-29T08:36:32.143Z,61.75
2023-01-29T08:39:04.259Z,62.08
2023-01-29T08:41:36.217Z,62.14
2023-01-29T08:44:08.210Z,62.04
2023-01-29T08:46:41.180Z,62.38
2023-01-29T08:49:13.167Z,62.28
2023-01-29T08:51:45.107Z,62.02
2023-01-29T08:54:17.283Z,61.92
2023-01-29T08:56:49.467Z,62.12
2023-01-29T08:59:23.182Z,62.02
2023-01-29T09:01:55.105Z,61.21
2023-01-29T09:04:27.104Z,61.80
2023-01-29T09:06:59.110Z,61.50
2023-01-29T09:09:31.036Z,61.98
2023-01-29T09:12:03.003Z,61.96
2023-01-29T09:14:34.913Z,61.65
2023-01-29T09:17:06.890Z,61.39
2023-01-29T09:19:38.821Z,62.38
2023-01-29T09:22:11.896Z,61.46
2023-01-29T09:24:44.001Z,62.10
2023-01-29T09:27:15.963Z,62.14
2023-01-29T09:29:47.960Z,61.72
2023-01-29T09:32:49.836Z,62.15
2023-01-29T09:35:11.839Z,61.18
2023-01-29T09:37:43.771Z,61.29
2023-01-29T09:40:39.476Z,60.55
2023-01-29T09:43:19.211Z,60.98
2023-01-29T09:46:00.774Z,60.48
2023-01-29T09:48:36.764Z,60.61
2023-01-29T09:51:22.302Z,60.10
2023-01-29T09:54:19.131Z,60.90
2023-01-29T09:56:56.006Z,60.47
2023-01-29T09:59:31.467Z,60.43
2023-01-29T10:02:20.110Z,60.52
2023-01-29T10:05:10.610Z,60.76
2023-01-29T10:08:21.108Z,60.41
2023-01-29T10:11:20.237Z,60.41
2023-01-29T10:14:31.494Z,60.88
2023-01-29T10:17:30.444Z,60.45
2023-01-29T10:20:14.445Z,60.50
2023-01-29T10:23:12.656Z,60.70
2023-01-29T10:25:46.162Z,60.86
2023-01-29T10:28:28.610Z,59.69
2023-01-29T10:31:09.279Z,59.45
2023-01-29T10:33:49.344Z,59.53
2023-01-29T10:36:57.608Z,60.28
2023-01-29T10:39:31.318Z,61.15
2023-01-29T10:42:28.268Z,60.39
2023-01-29T10:45:17.386Z,60.54
2023-01-29T10:48:06.463Z,61.12
2023-01-29T10:50:44.551Z,60.99
2023-01-29T10:53:53.866Z,61.63
2023-01-29T10:56:50.944Z,61.84
2023-01-29T10:59:42.961Z,61.01
2023-01-29T11:02:18.892Z,61.45
2023-01-29T11:04:50.851Z,60.94
2023-01-29T11:07:23.848Z,61.39
2023-01-29T11:10:03.341Z,61.57
2023-01-29T11:12:38.562Z,61.29
2023-01-29T11:15:32.499Z,62.28
2023-01-29T11:18:15.957Z,63.12
2023-01-29T11:21:02.292Z,63.21
2023-01-29T11:23:34.500Z,62.80
2023-01-29T11:26:09.660Z,63.58
2023-01-29T11:28:47.062Z,63.36
2023-01-29T11:31:30.382Z,63.23
2023-01-29T11:34:06.743Z,62.96
2023-01-29T11:36:39.618Z,63.00
2023-01-29T11:39:22.717Z,63.30
2023-01-29T11:42:01.813Z,63.86
2023-01-29T11:44:38.973Z,63.67
2023-01-29T11:47:17.671Z,64.29
2023-01-29T11:49:54.530Z,64.18
2023-01-29T11:52:35.617Z,63.79
2023-01-29T11:55:17.661Z,63.73
2023-01-29T11:58:30.538Z,64.39
2023-01-29T12:01:03.297Z,64.23
2023-01-29T12:03:36.633Z,64.71
2023-01-29T12:06:20.236Z,64.96
2023-01-29T12:09:02.231Z,64.47
2023-01-29T12:11:35.846Z,64.31
2023-01-29T12:14:24.385Z,64.73
2023-01-29T12:17:17.700Z,65.00
2023-01-29T12:19:56.817Z,65.08
2023-01-29T12:22:43.859Z,65.66
2023-01-29T12:25:22.867Z,64.98
2023-01-29T12:28:13.366Z,65.95
2023-01-29T12:31:08.997Z,65.59
2023-01-29T12:33:54.593Z,66.50
2023-01-29T12:36:29.255Z,66.66
2023-01-29T12:39:01.254Z,66.29
2023-01-29T12:41:36.807Z,66.30
2023-01-29T12:44:33.752Z,66.73
2023-01-29T12:47:08.477Z,67.19
2023-01-29T12:49:44.074Z,67.36
2023-01-29T12:52:21.416Z,67.03
2023-01-29T12:55:28.181Z,66.81
2023-01-29T12:58:25.696Z,67.99
2023-01-29T13:01:05.679Z,67.72
2023-01-29T13:03:40.463Z,67.97
2023-01-29T13:06:16.189Z,67.97
2023-01-29T13:08:56.071Z,68.13
2023-01-29T13:11:42.277Z,68.08
2023-01-29T13:14:41.435Z,68.45
2023-01-29T13:17:38.091Z,68.01
2023-01-29T13:20:29.141Z,68.23
2023-01-29T13:23:19.540Z,68.63
2023-01-29T13:25:55.088Z,69.18
2023-01-29T13:28:28.277Z,69.22
2023-01-29T13:31:23.707Z,69.26
2023-01-29T13:34:18.322Z,68.95
2023-01-29T13:37:03.258Z,70.35
2023-01-29T13:39:44.979Z,71.04
2023-01-29T13:42:23.756Z,71.05
2023-01-29T13:45:03.230Z,71.83
2023-01-29T13:47:38.962Z,71.52
2023-01-29T13:50:18.900Z,72.57
2023-01-29T13:52:58.409Z,72.84
2023-01-29T13:55:33.301Z,72.78
2023-01-29T13:58:38.433Z,73.84
2023-01-29T14:01:10.464Z,73.59
2023-01-29T14:04:04.223Z,72.93
2023-01-29T14:06:40.699Z,73.12
2023-01-29T14:09:44.817Z,73.33
2023-01-29T14:12:22.814Z,73.70
2023-01-29T14:14:57.774Z,73.98
2023-01-29T14:17:30.378Z,74.21
2023-01-29T14:20:16.793Z,75.16
2023-01-29T14:22:58.061Z,75.03
2023-01-29T14:25:37.552Z,76.01
2023-01-29T14:28:20.331Z,75.15
2023-01-29T14:30:53.096Z,76.01
2023-01-29T14:33:44.759Z,76.14
2023-01-29T14:36:17.077Z,76.47
2023-01-29T14:38:52.543Z,76.29
2023-01-29T14:41:25.606Z,77.30
2023-01-29T14:44:35.226Z,77.13
2023-01-29T14:47:18.723Z,77.89
2023-01-29T14:49:56.524Z,77.13
2023-01-29T14:52:43.527Z,77.64
2023-01-29T14:55:36.141Z,77.43
2023-01-29T14:58:15.030Z,77.48
2023-01-29T15:00:53.305Z,77.60
2023-01-29T15:03:40.279Z,77.42
2023-01-29T15:06:19.533Z,76.72
2023-01-29T15:09:01.271Z,77.06
2023-01-29T15:11:41.106Z,77.26
2023-01-29T15:14:17.092Z,77.18
2023-01-29T15:17:01.433Z,77.74
2023-01-29T15:19:45.000Z,77.57
2023-01-29T15:22:22.341Z,78.30
2023-01-29T15:25:13.371Z,78.36
2023-01-29T15:27:46.347Z,78.42
2023-01-29T15:30:27.550Z,78.71
2023-01-29T15:33:00.970Z,79.08
2023-01-29T15:35:39.359Z,78.95
2023-01-29T15:38:18.937Z,79.54
2023-01-29T15:40:57.006Z,79.76
2023-01-29T15:43:37.112Z,79.20
2023-01-29T15:46:25.619Z,79.59
2023-01-29T15:49:01.773Z,78.99
2023-01-29T15:51:34.297Z,78.48
2023-01-29T15:54:15.497Z,78.64
2023-01-29T15:56:51.570Z,78.56
2023-01-29T15:59:27.487Z,78.98
2023-01-29T16:01:59.520Z,79.42
2023-01-29T16:04:32.121Z,79.38
2023-01-29T16:07:04.719Z,78.92
2023-01-29T16:09:37.088Z,78.95
2023-01-29T16:12:13.008Z,78.60
2023-01-29T16:14:45.481Z,79.21
2023-01-29T16:17:41.090Z,78.98
2023-01-29T16:20:44.042Z,79.00
2023-01-29T16:23:31.275Z,79.39
2023-01-29T16:26:07.708Z,79.42
2023-01-29T16:28:45.091Z,79.62
2023-01-29T16:31:32.327Z,79.40
2023-01-29T16:34:15.275Z,79.44
2023-01-29T16:36:48.591Z,79.58
2023-01-29T16:39:28.110Z,80.10
2023-01-29T16:42:20.313Z,79.39
2023-01-29T16:45:03.663Z,79.32
2023-01-29T16:47:41.748Z,79.43
2023-01-29T16:50:38.290Z,79.25
2023-01-29T16:53:24.924Z,79.72
2023-01-29T16:56:04.601Z,79.62
2023-01-29T16:58:37.237Z,79.57
2023-01-29T17:01:11.756Z,79.74
2023-01-29T17:03:44.072Z,80.03
2023-01-29T17:06:23.913Z,79.64
2023-01-29T17:08:56.180Z,80.03
2023-01-29T17:11:38.913Z,80.18
2023-01-29T17:14:19.458Z,79.64
2023-01-29T17:16:55.416Z,79.15
2023-01-29T17:19:28.115Z,79.25
2023-01-29T17:22:00.496Z,79.55
2023-01-29T17:24:32.420Z,79.21
2023-01-29T17:27:04.445Z,79.11
2023-01-29T17:29:39.383Z,78.80
2023-01-29T17:32:11.892Z,78.96
2023-01-29T17:34:44.118Z,79.28
2023-01-29T17:37:16.818Z,78.61
2023-01-29T17:39:50.999Z,78.72
2023-01-29T17:42:23.057Z,78.30
2023-01-29T17:44:55.087Z,78.45
2023-01-29T17:47:27.383Z,78.71
2023-01-29T17:50:00.199Z,79.06
2023-01-29T17:52:33.225Z,78.83
2023-01-29T17:55:05.666Z,79.31
2023-01-29T17:57:37.655Z,78.30
2023-01-29T18:00:21.965Z,78.45
2023-01-29T18:02:54.731Z,78.34
2023-01-29T18:05:26.642Z,78.17
2023-01-29T18:07:58.660Z,78.21
2023-01-29T18:10:30.604Z,78.79
2023-01-29T18:13:02.536Z,78.06
2023-01-29T18:15:34.499Z,78.51
2023-01-29T18:18:06.919Z,77.70
2023-01-29T18:20:40.211Z,78.03
2023-01-29T18:23:12.908Z,78.32
2023-01-29T18:25:45.495Z,78.22
2023-01-29T18:28:20.959Z,77.77
2023-01-29T18:30:53.222Z,77.66
2023-01-29T18:33:26.237Z,78.35
2023-01-29T18:35:58.757Z,78.27
2023-01-29T18:38:33.421Z,78.58
2023-01-29T18:41:11.109Z,77.93
2023-01-29T18:43:43.558Z,78.09
2023-01-29T18:46:15.641Z,77.85
2023-01-29T18:48:47.598Z,78.33
2023-01-29T18:51:19.519Z,77.78
2023-01-29T18:53:52.465Z,77.61
2023-01-29T18:56:24.393Z,77.73
2023-01-29T18:58:56.579Z,77.76
2023-01-29T19:01:28.629Z,77.74
2023-01-29T19:04:02.106Z,77.89
2023-01-29T19:06:37.090Z,77.36
2023-01-29T19:09:09.725Z,77.19
2023-01-29T19:11:41.696Z,77.28
2023-01-29T19:14:13.680Z,77.04
2023-01-29T19:16:45.620Z,76.94
2023-01-29T19:19:18.047Z,77.84
2023-01-29T19:21:53.836Z,77.27
2023-01-29T19:24:26.135Z,77.02
2023-01-29T19:26:58.137Z,77.65
2023-01-29T19:29:30.098Z,77.12
2023-01-29T19:32:02.423Z,77.27
2023-01-29T19:34:34.642Z,77.33
2023-01-29T19:37:06.645Z,77.20
2023-01-29T19:39:38.606Z,77.15
2023-01-29T19:42:10.496Z,76.94
2023-01-29T19:44:42.560Z,77.81
2023-01-29T19:47:14.668Z,77.96
2023-01-29T19:49:47.196Z,77.06
2023-01-29T19:52:50.715Z,76.72
2023-01-29T19:55:23.556Z,76.88
2023-01-29T19:57:57.434Z,76.19
2023-01-29T20:00:29.441Z,76.92
2023-01-29T20:03:01.455Z,77.31
2023-01-29T20:05:36.150Z,77.13
2023-01-29T20:08:08.114Z,76.81
2023-01-29T20:10:40.094Z,77.18
2023-01-29T20:13:12.810Z,77.48
2023-01-29T20:15:49.593Z,78.06
2023-01-29T20:18:21.736Z,77.92
2023-01-29T20:20:53.685Z,77.56
2023-01-29T20:23:37.022Z,78.29
2023-01-29T20:26:14.688Z,78.02
2023-01-29T20:28:48.217Z,77.90
2023-01-29T20:31:20.232Z,77.70
2023-01-29T20:33:52.387Z,77.72
2023-01-29T20:36:24.334Z,77.90
2023-01-29T20:38:56.426Z,77.49
2023-01-29T20:41:28.402Z,77.27
2023-01-29T20:44:00.456Z,77.50
2023-01-29T20:46:32.796Z,77.46
2023-01-29T20:49:07.216Z,77.47
2023-01-29T20:51:39.221Z,77.50
2023-01-29T20:54:13.029Z,77.41
2023-01-29T20:56:46.851Z,77.21
2023-01-29T20:59:20.323Z,77.17
2023-01-29T21:01:52.302Z,77.18
2023-01-29T21:04:24.361Z,77.05
2023-01-29T21:06:56.349Z,76.91
2023-01-29T21:09:28.302Z,76.67
2023-01-29T21:12:00.593Z,76.74
2023-01-29T21:14:33.066Z,77.54
2023-01-29T21:17:05.309Z,77.21
2023-01-29T21:19:37.417Z,77.26
2023-01-29T21:22:09.264Z,77.28
2023-01-29T21:24:41.293Z,77.48
2023-01-29T21:27:13.254Z,77.44
2023-01-29T21:29:45.203Z,77.11
2023-01-29T21:32:18.552Z,77.98
2023-01-29T21:34:52.492Z,77.52
2023-01-29T21:37:24.656Z,77.59
2023-01-29T21:39:56.572Z,77.33
2023-01-29T21:42:47.216Z,76.99
2023-01-29T21:45:20.402Z,77.13
2023-01-29T21:47:52.402Z,77.43
2023-01-29T21:50:24.407Z,77.72
2023-01-29T21:52:56.379Z,77.43
2023-01-29T21:55:28.452Z,77.88
2023-01-29T21:58:00.861Z,77.85
2023-01-29T22:00:33.079Z,78.00
2023-01-29T22:03:05.189Z,77.71
2023-01-29T22:05:37.271Z,78.24
2023-01-29T22:08:09.969Z,78.47
2023-01-29T22:10:42.133Z,78.54
2023-01-29T22:13:14.232Z,78.80
2023-01-29T22:15:46.212Z,79.35
2023-01-29T22:18:18.245Z,79.64
2023-01-29T22:20:54.487Z,79.37
2023-01-29T22:23:26.420Z,79.86
2023-01-29T22:26:05.875Z,79.52
2023-01-29T22:28:37.772Z,80.01
2023-01-29T22:31:09.973Z,80.07
2023-01-29T22:33:41.924Z,80.17
2023-01-29T22:36:13.856Z,80.67
2023-01-29T22:38:46.934Z,80.27
2023-01-29T22:41:18.780Z,80.67
2023-01-29T22:43:50.738Z,80.44
2023-01-29T22:46:22.684Z,80.07
2023-01-29T22:48:55.131Z,80.23
2023-01-29T22:51:27.115Z,79.97
2023-01-29T22:53:59.102Z,79.74
2023-01-29T22:56:31.506Z,79.29
2023-01-29T22:59:03.597Z,79.26
2023-01-29T23:01:35.644Z,79.59
2023-01-29T23:04:07.612Z,79.81
2023-01-29T23:06:39.561Z,79.56
2023-01-29T23:09:11.529Z,79.37
2023-01-29T23:11:43.475Z,79.87
2023-01-29T23:14:15.414Z,79.52
2023-01-29T23:16:47.521Z,79.26
2023-01-29T23:19:19.557Z,79.49
2023-01-29T23:21:51.446Z,79.47
2023-01-29T23:24:23.479Z,79.84
2023-01-29T23:27:14.075Z,79.33
2023-01-29T23:29:47.785Z,79.33
2023-01-29T23:32:21.218Z,79.22
2023-01-29T23:34:53.342Z,79.52
2023-01-29T23:37:25.754Z,79.40
2023-01-29T23:39:57.726Z,79.32
2023-01-29T23:42:29.689Z,79.26
2023-01-29T23:45:01.688Z,78.86
2023-01-29T23:47:33.559Z,78.67
2023-01-29T23:50:05.944Z,78.69
2023-01-29T23:52:39.120Z,78.83
2023-01-29T23:55:11.096Z,78.84
2023-01-29T23:57:43.008Z,78.78
